createdAt,value
2023-02-12T00:01:36.176Z,17.33
2023-02-12T00:04:04.965Z,17.80
2023-02-12T00:06:33.263Z,18.17
2023-02-12T00:09:01.544Z,18.63
2023-02-12T00:11:31.181Z,19.37
2023-02-12T00:14:03.320Z,18.23
2023-02-12T00:16:31.676Z,17.93
2023-02-12T00:19:01.354Z,18.07
2023-02-12T00:21:29.969Z,19.73
2023-02-12T00:23:58.846Z,18.37
2023-02-12T00:26:27.263Z,19.13
2023-02-12T00:28:56.252Z,17.90
2023-02-12T00:31:28.561Z,17.80
2023-02-12T00:33:57.769Z,19.47
2023-02-12T00:36:29.715Z,19.07
2023-02-12T00:38:58.616Z,18.77
2023-02-12T00:41:28.019Z,18.93
2023-02-12T00:43:56.321Z,18.03
2023-02-12T00:46:26.129Z,18.87
2023-02-12T00:48:54.458Z,18.97
2023-02-12T00:51:23.088Z,17.67
2023-02-12T00:53:51.377Z,18.93
2023-02-12T00:56:19.828Z,19.70
2023-02-12T00:58:48.067Z,20.10
2023-02-12T01:01:17.856Z,18.17
2023-02-12T01:03:47.511Z,18.80
2023-02-12T01:06:15.817Z,19.03
2023-02-12T01:08:44.012Z,17.57
2023-02-12T01:11:14.951Z,19.67
2023-02-12T01:13:43.417Z,18.93
2023-02-12T01:16:17.333Z,19.07
2023-02-12T01:18:47.917Z,20.33
2023-02-12T01:21:19.117Z,19.13
2023-02-12T01:23:47.997Z,20.73
2023-02-12T01:26:18.112Z,19.87
2023-02-12T01:28:52.039Z,19.77
2023-02-12T01:31:24.177Z,18.70
2023-02-12T01:33:56.028Z,19.73
2023-02-12T01:36:25.148Z,19.15
2023-02-12T01:38:53.980Z,20.07
2023-02-12T01:41:25.187Z,19.70
2023-02-12T01:44:17.421Z,20.70
2023-02-12T01:46:47.849Z,20.00
2023-02-12T01:49:22.420Z,20.50
2023-02-12T01:51:55.331Z,19.87
2023-02-12T01:54:26.759Z,20.20
2023-02-12T01:56:55.437Z,20.00
2023-02-12T01:59:24.195Z,20.77
2023-02-12T02:01:52.652Z,21.33
2023-02-12T02:04:27.084Z,20.43
2023-02-12T02:06:59.406Z,22.37
2023-02-12T02:09:30.027Z,19.87
2023-02-12T02:12:16.214Z,20.40
2023-02-12T02:14:45.536Z,19.67
2023-02-12T02:17:45.134Z,20.53
2023-02-12T02:21:16.443Z,20.70
2023-02-12T02:24:28.172Z,19.93
2023-02-12T02:27:16.312Z,19.83
2023-02-12T02:30:24.359Z,20.20
2023-02-12T02:33:04.042Z,19.20
2023-02-12T02:35:41.546Z,21.03
2023-02-12T02:38:21.749Z,19.80
2023-02-12T02:40:58.018Z,19.70
2023-02-12T02:43:30.872Z,19.97
2023-02-12T02:46:07.400Z,21.40
2023-02-12T02:48:38.867Z,21.80
2023-02-12T02:51:13.466Z,22.73
2023-02-12T02:53:47.712Z,22.23
2023-02-12T02:56:20.465Z,22.40
2023-02-12T02:58:54.472Z,23.90
2023-02-12T03:01:29.591Z,22.13
2023-02-12T03:04:04.400Z,23.20
2023-02-12T03:06:40.215Z,22.23
2023-02-12T03:09:19.642Z,21.80
2023-02-12T03:11:48.397Z,21.73
2023-02-12T03:14:22.052Z,23.47
2023-02-12T03:16:59.466Z,22.77
2023-02-12T03:19:32.224Z,24.10
2023-02-12T03:22:05.910Z,21.70
2023-02-12T03:24:37.473Z,23.30
2023-02-12T03:27:11.299Z,22.73
2023-02-12T03:29:39.832Z,22.57
2023-02-12T03:32:26.148Z,21.40
2023-02-12T03:35:07.894Z,21.73
2023-02-12T03:37:42.335Z,21.87
2023-02-12T03:40:18.521Z,21.80
2023-02-12T03:42:54.989Z,22.27
2023-02-12T03:45:39.597Z,22.03
2023-02-12T03:48:15.210Z,23.07
2023-02-12T03:50:52.027Z,22.63
2023-02-12T03:53:20.468Z,23.90
2023-02-12T03:55:55.961Z,21.27
2023-02-12T03:58:28.537Z,21.03
2023-02-12T04:00:57.489Z,22.60
2023-02-12T04:03:27.409Z,22.87
2023-02-12T04:05:55.906Z,22.63
2023-02-12T04:08:25.682Z,24.60
2023-02-12T04:11:11.993Z,24.63
2023-02-12T04:13:52.966Z,23.70
2023-02-12T04:16:28.088Z,23.07
2023-02-12T04:18:58.395Z,23.47
2023-02-12T04:21:45.746Z,24.13
2023-02-12T04:24:26.212Z,23.27
2023-02-12T04:26:59.161Z,23.20
2023-02-12T04:29:35.998Z,22.27
2023-02-12T04:32:10.542Z,23.40
2023-02-12T04:34:50.658Z,23.23
2023-02-12T04:37:24.244Z,23.73
2023-02-12T04:39:54.340Z,23.13
2023-02-12T04:42:22.991Z,21.70
2023-02-12T04:44:51.232Z,23.10
2023-02-12T04:47:19.496Z,23.30
2023-02-12T04:49:49.094Z,25.97
2023-02-12T04:52:17.453Z,25.47
2023-02-12T04:54:45.978Z,24.17
2023-02-12T04:57:14.226Z,25.77
2023-02-12T04:59:42.428Z,25.40
2023-02-12T05:02:10.682Z,28.57
2023-02-12T05:04:38.963Z,26.27
2023-02-12T05:07:08.632Z,27.33
2023-02-12T05:09:36.933Z,25.97
2023-02-12T05:12:05.464Z,24.57
2023-02-12T05:14:33.700Z,24.33
2023-02-12T05:17:01.961Z,25.63
2023-02-12T05:19:30.192Z,26.27
2023-02-12T05:21:58.429Z,26.17
2023-02-12T05:24:28.132Z,27.13
2023-02-12T05:26:56.459Z,26.53
2023-02-12T05:29:24.950Z,25.50
2023-02-12T05:31:53.220Z,24.53
2023-02-12T05:34:21.554Z,25.77
2023-02-12T05:36:49.988Z,26.80
2023-02-12T05:39:18.792Z,25.67
2023-02-12T05:41:48.489Z,25.93
2023-02-12T05:44:16.763Z,25.80
2023-02-12T05:46:45.643Z,26.10
2023-02-12T05:49:14.009Z,28.13
2023-02-12T05:51:42.293Z,27.80
2023-02-12T05:54:11.370Z,28.70
2023-02-12T05:56:45.050Z,28.67
2023-02-12T05:59:20.195Z,26.87
2023-02-12T06:01:51.145Z,26.03
2023-02-12T06:04:21.604Z,27.17
2023-02-12T06:06:49.947Z,28.50
2023-02-12T06:09:18.297Z,28.50
2023-02-12T06:11:46.801Z,26.23
2023-02-12T06:14:19.802Z,25.57
2023-02-12T06:16:50.213Z,26.87
2023-02-12T06:19:19.897Z,27.80
2023-02-12T06:21:48.698Z,26.13
2023-02-12T06:24:18.230Z,27.27
2023-02-12T06:26:47.218Z,27.13
2023-02-12T06:29:16.864Z,27.00
2023-02-12T06:31:45.381Z,27.57
2023-02-12T06:34:16.744Z,28.23
2023-02-12T06:36:46.892Z,28.37
2023-02-12T06:39:17.234Z,28.50
2023-02-12T06:41:45.657Z,28.93
2023-02-12T06:44:16.111Z,28.53
2023-02-12T06:46:44.524Z,27.93
2023-02-12T06:49:16.277Z,29.57
2023-02-12T06:51:44.579Z,27.43
2023-02-12T06:54:16.582Z,26.40
2023-02-12T06:56:45.835Z,28.50
2023-02-12T06:59:17.772Z,26.40
2023-02-12T07:01:46.287Z,28.07
2023-02-12T07:04:14.816Z,26.90
2023-02-12T07:06:43.171Z,27.53
2023-02-12T07:09:11.460Z,27.60
2023-02-12T07:11:40.107Z,27.83
2023-02-12T07:14:08.913Z,28.83
2023-02-12T07:16:38.832Z,27.03
2023-02-12T07:19:07.128Z,26.90
2023-02-12T07:21:35.365Z,26.70
2023-02-12T07:24:03.665Z,27.73
2023-02-12T07:26:31.915Z,28.30
2023-02-12T07:29:00.155Z,29.17
2023-02-12T07:31:28.809Z,29.30
2023-02-12T07:34:00.236Z,29.03
2023-02-12T07:36:31.596Z,28.87
2023-02-12T07:39:01.632Z,31.13
2023-02-12T07:41:32.097Z,30.67
2023-02-12T07:44:06.770Z,31.93
2023-02-12T07:46:38.128Z,32.77
2023-02-12T07:49:10.822Z,32.20
2023-02-12T07:51:39.196Z,30.47
2023-02-12T07:54:07.655Z,30.03
2023-02-12T07:56:39.003Z,31.63
2023-02-12T07:59:11.094Z,31.90
2023-02-12T08:01:41.944Z,30.53
2023-02-12T08:04:15.138Z,34.70
2023-02-12T08:06:45.823Z,33.90
2023-02-12T08:09:18.687Z,34.17
2023-02-12T08:11:47.391Z,34.57
2023-02-12T08:14:19.364Z,39.67
2023-02-12T08:16:49.675Z,37.70
2023-02-12T08:19:23.964Z,38.23
2023-02-12T08:21:58.423Z,40.67
2023-02-12T08:24:27.001Z,39.10
2023-02-12T08:26:55.273Z,36.00
2023-02-12T08:29:25.960Z,36.03
2023-02-12T08:31:58.915Z,34.87
2023-02-12T08:34:31.306Z,35.73
2023-02-12T08:37:00.392Z,33.27
2023-02-12T08:39:31.238Z,35.70
2023-02-12T08:42:01.160Z,34.50
2023-02-12T08:44:29.890Z,34.93
2023-02-12T08:46:58.221Z,34.97
2023-02-12T08:49:30.098Z,34.53
2023-02-12T08:52:01.766Z,35.33
2023-02-12T08:54:32.694Z,35.50
2023-02-12T08:57:03.165Z,36.57
2023-02-12T08:59:32.156Z,36.83
2023-02-12T09:02:00.790Z,38.23
2023-02-12T09:04:31.271Z,35.53
2023-02-12T09:06:59.656Z,38.23
2023-02-12T09:09:28.024Z,36.80
2023-02-12T09:11:56.329Z,38.77
2023-02-12T09:14:25.312Z,38.57
2023-02-12T09:16:54.274Z,38.30
2023-02-12T09:19:22.831Z,35.90
2023-02-12T09:21:56.135Z,38.43
2023-02-12T09:24:27.504Z,38.37
2023-02-12T09:26:56.102Z,37.43
2023-02-12T09:29:24.425Z,36.73
2023-02-12T09:31:52.952Z,37.37
2023-02-12T09:34:21.388Z,37.80
2023-02-12T09:36:49.639Z,36.63
2023-02-12T09:39:19.288Z,37.43
2023-02-12T09:42:18.876Z,36.90
2023-02-12T09:44:52.788Z,34.90
2023-02-12T09:47:28.712Z,36.23
2023-02-12T09:50:32.961Z,36.83
2023-02-12T09:53:01.908Z,36.33
2023-02-12T09:55:34.827Z,34.83
2023-02-12T09:58:10.302Z,35.60
2023-02-12T10:00:38.569Z,35.50
2023-02-12T10:03:16.060Z,33.17
2023-02-12T10:05:49.418Z,32.50
2023-02-12T10:09:01.410Z,32.87
2023-02-12T10:11:53.157Z,32.97
2023-02-12T10:15:15.346Z,32.17
2023-02-12T10:17:50.320Z,29.43
2023-02-12T10:20:54.325Z,30.27
2023-02-12T10:23:59.382Z,29.47
2023-02-12T10:26:32.076Z,32.67
2023-02-12T10:29:33.119Z,28.53
2023-02-12T10:32:06.789Z,29.50
2023-02-12T10:34:37.839Z,30.77
2023-02-12T10:37:12.956Z,34.33
2023-02-12T10:39:49.158Z,40.37
2023-02-12T10:42:22.630Z,33.53
2023-02-12T10:44:52.418Z,31.67
2023-02-12T10:47:23.563Z,38.60
2023-02-12T10:49:59.260Z,38.77
2023-02-12T10:52:40.809Z,35.03
2023-02-12T10:55:27.255Z,30.60
2023-02-12T10:57:56.700Z,29.33
2023-02-12T11:00:31.917Z,33.07
2023-02-12T11:03:23.796Z,31.20
2023-02-12T11:05:52.100Z,31.30
2023-02-12T11:08:36.525Z,33.50
2023-02-12T11:11:10.351Z,29.73
2023-02-12T11:13:41.527Z,30.40
2023-02-12T11:16:12.336Z,34.27
2023-02-12T11:18:40.681Z,31.03
2023-02-12T11:21:11.251Z,27.33
2023-02-12T11:23:42.862Z,26.33
2023-02-12T11:26:28.684Z,25.87
2023-02-12T11:29:00.517Z,28.00
2023-02-12T11:31:32.368Z,26.57
2023-02-12T11:34:16.587Z,28.90
2023-02-12T11:36:47.319Z,32.97
2023-02-12T11:39:22.709Z,30.23
2023-02-12T11:41:54.850Z,27.60
2023-02-12T11:44:27.731Z,25.87
2023-02-12T11:47:02.200Z,25.60
2023-02-12T11:49:34.238Z,27.27
2023-02-12T11:52:05.964Z,26.60
2023-02-12T11:54:41.893Z,26.70
2023-02-12T11:57:39.326Z,27.17
2023-02-12T12:00:16.695Z,28.33
2023-02-12T12:02:51.873Z,29.03
2023-02-12T12:05:22.637Z,32.37
2023-02-12T12:07:57.012Z,30.60
2023-02-12T12:10:35.618Z,26.70
2023-02-12T12:13:12.302Z,26.60
2023-02-12T12:16:03.573Z,27.30
2023-02-12T12:18:58.539Z,27.73
2023-02-12T12:21:35.390Z,27.87
2023-02-12T12:24:12.715Z,27.77
2023-02-12T12:26:47.140Z,26.30
2023-02-12T12:29:22.018Z,25.97
2023-02-12T12:31:54.844Z,27.60
2023-02-12T12:34:26.947Z,26.87
2023-02-12T12:37:20.987Z,24.23
2023-02-12T12:40:14.497Z,25.93
2023-02-12T12:43:09.616Z,23.57
2023-02-12T12:46:14.229Z,25.10
2023-02-12T12:49:22.196Z,26.17
2023-02-12T12:52:09.387Z,27.50
2023-02-12T12:54:57.100Z,26.07
2023-02-12T12:57:40.876Z,25.23
2023-02-12T13:00:36.454Z,24.60
2023-02-12T13:03:45.215Z,24.47
2023-02-12T13:06:38.031Z,25.07
2023-02-12T13:09:28.895Z,25.00
2023-02-12T13:12:34.246Z,24.07
2023-02-12T13:15:11.627Z,23.80
2023-02-12T13:17:46.349Z,25.33
2023-02-12T13:20:24.242Z,23.30
2023-02-12T13:23:00.657Z,22.90
2023-02-12T13:25:37.111Z,23.37
2023-02-12T13:28:07.288Z,24.90
2023-02-12T13:30:44.301Z,22.47
2023-02-12T13:33:18.098Z,23.37
2023-02-12T13:35:49.357Z,23.70
2023-02-12T13:38:24.352Z,23.20
2023-02-12T13:40:57.651Z,22.13
2023-02-12T13:43:45.689Z,21.57
2023-02-12T13:46:22.865Z,19.87
2023-02-12T13:49:02.654Z,42.73
2023-02-12T13:51:42.800Z,23.63
2023-02-12T13:54:48.155Z,22.33
2023-02-12T13:57:23.060Z,20.57
2023-02-12T13:59:53.805Z,19.60
2023-02-12T14:02:53.034Z,23.40
2023-02-12T14:05:28.923Z,23.10
2023-02-12T14:08:00.699Z,22.53
2023-02-12T14:10:34.319Z,21.50
2023-02-12T14:13:19.186Z,23.53
2023-02-12T14:15:51.290Z,23.70
2023-02-12T14:18:35.775Z,21.93
2023-02-12T14:21:44.417Z,22.07
2023-02-12T14:24:53.214Z,22.60
2023-02-12T14:27:38.467Z,20.90
2023-02-12T14:33:25.184Z,24.40
2023-02-12T14:36:21.182Z,22.30
2023-02-12T14:39:01.668Z,22.70
2023-02-12T14:41:38.792Z,20.77
2023-02-12T14:44:46.386Z,21.33
2023-02-12T14:47:56.044Z,21.83
2023-02-12T14:50:31.807Z,19.97
2023-02-12T14:53:21.296Z,18.77
2023-02-12T14:55:50.789Z,18.80
2023-02-12T14:58:22.042Z,19.53
2023-02-12T15:00:56.105Z,18.77
2023-02-12T15:03:33.068Z,19.53
2023-02-12T15:06:16.367Z,20.00
2023-02-12T15:08:50.801Z,18.00
2023-02-12T15:11:29.553Z,18.27
2023-02-12T15:14:05.872Z,17.80
2023-02-12T15:16:44.759Z,17.90
2023-02-12T15:19:35.567Z,19.23
2023-02-12T15:22:05.166Z,19.47
2023-02-12T15:24:33.413Z,18.63
2023-02-12T15:27:02.082Z,19.30
2023-02-12T15:29:36.802Z,18.03
2023-02-12T15:32:09.817Z,19.83
2023-02-12T15:34:41.853Z,18.57
2023-02-12T15:37:19.857Z,18.63
2023-02-12T15:39:48.963Z,18.43
2023-02-12T15:42:30.294Z,19.47
2023-02-12T15:45:22.110Z,21.13
2023-02-12T15:48:10.884Z,19.17
2023-02-12T15:50:51.347Z,19.50
2023-02-12T15:53:21.755Z,22.63
2023-02-12T15:55:51.239Z,45.63
2023-02-12T15:58:24.529Z,29.00
2023-02-12T16:00:54.807Z,27.70
2023-02-12T16:03:26.989Z,27.23
2023-02-12T16:06:02.612Z,25.87
2023-02-12T16:08:34.780Z,21.43
2023-02-12T16:11:13.849Z,21.40
2023-02-12T16:13:46.896Z,22.27
2023-02-12T16:16:25.524Z,22.03
2023-02-12T16:19:09.603Z,32.13
2023-02-12T16:21:40.291Z,29.80
2023-02-12T16:24:27.465Z,25.27
2023-02-12T16:26:56.347Z,24.00
2023-02-12T16:29:25.091Z,30.27
2023-02-12T16:31:59.118Z,31.40
2023-02-12T16:34:37.101Z,26.20
2023-02-12T16:37:45.800Z,26.67
2023-02-12T16:40:30.909Z,26.73
2023-02-12T16:43:07.914Z,30.33
2023-02-12T16:45:42.629Z,27.30
2023-02-12T16:48:19.209Z,27.87
2023-02-12T16:50:51.957Z,26.10
2023-02-12T16:53:47.400Z,25.17
2023-02-12T16:56:21.136Z,26.10
2023-02-12T16:58:52.094Z,27.23
2023-02-12T17:01:24.513Z,30.53
2023-02-12T17:03:53.485Z,32.27
2023-02-12T17:06:23.409Z,27.57
2023-02-12T17:08:52.107Z,27.43
2023-02-12T17:11:23.261Z,27.10
2023-02-12T17:13:53.896Z,22.27
2023-02-12T17:16:32.055Z,19.13
2023-02-12T17:19:00.887Z,20.67
2023-02-12T17:21:31.124Z,23.27
2023-02-12T17:23:59.611Z,24.10
2023-02-12T17:26:29.274Z,27.17
2023-02-12T17:29:05.151Z,23.53
2023-02-12T17:31:33.839Z,26.90
2023-02-12T17:34:02.447Z,24.63
2023-02-12T17:36:30.837Z,26.17
2023-02-12T17:38:59.084Z,24.37
2023-02-12T17:41:28.758Z,23.43
2023-02-12T17:43:57.033Z,24.77
2023-02-12T17:46:28.304Z,18.73
2023-02-12T17:48:56.871Z,18.60
2023-02-12T17:51:25.674Z,17.27
2023-02-12T17:53:54.279Z,18.10
2023-02-12T17:56:25.622Z,18.40
2023-02-12T17:58:55.237Z,18.50
2023-02-12T18:01:24.930Z,17.57
2023-02-12T18:03:55.554Z,18.83
2023-02-12T18:06:28.422Z,18.73
2023-02-12T18:08:58.488Z,19.20
2023-02-12T18:11:27.785Z,20.03
2023-02-12T18:13:59.285Z,19.77
2023-02-12T18:16:31.877Z,20.87
2023-02-12T18:19:01.352Z,20.60
2023-02-12T18:21:29.580Z,20.40
2023-02-12T18:23:57.858Z,20.53
2023-02-12T18:26:26.123Z,20.43
2023-02-12T18:28:54.933Z,20.27
2023-02-12T18:31:24.652Z,21.70
2023-02-12T18:33:54.334Z,22.87
2023-02-12T18:36:23.607Z,21.07
2023-02-12T18:38:52.965Z,19.50
2023-02-12T18:41:24.222Z,20.03
2023-02-12T18:43:52.866Z,20.47
2023-02-12T18:46:25.708Z,21.00
2023-02-12T18:48:54.674Z,21.77
2023-02-12T18:51:25.995Z,22.57
2023-02-12T18:53:57.141Z,22.53
2023-02-12T18:56:25.687Z,22.07
2023-02-12T18:58:57.637Z,22.87
2023-02-12T19:01:28.578Z,25.97
2023-02-12T19:04:00.130Z,28.83
2023-02-12T19:06:29.108Z,24.33
2023-02-12T19:08:58.455Z,25.33
2023-02-12T19:11:28.133Z,24.87
2023-02-12T19:13:56.931Z,21.37
2023-02-12T19:16:27.594Z,22.33
2023-02-12T19:19:00.010Z,18.27
2023-02-12T19:21:28.335Z,18.23
2023-02-12T19:24:01.339Z,21.03
2023-02-12T19:26:31.089Z,23.97
2023-02-12T19:28:59.740Z,26.70
2023-02-12T19:31:32.535Z,23.80
2023-02-12T19:34:06.544Z,23.13
2023-02-12T19:36:37.472Z,25.70
2023-02-12T19:39:06.959Z,23.97
2023-02-12T19:41:40.826Z,20.33
2023-02-12T19:44:12.801Z,21.60
2023-02-12T19:46:43.017Z,24.17
2023-02-12T19:49:17.996Z,21.80
2023-02-12T19:51:46.558Z,20.97
2023-02-12T19:54:17.412Z,22.57
2023-02-12T19:56:46.554Z,19.27
2023-02-12T19:59:17.234Z,19.47
2023-02-12T20:01:48.304Z,19.37
2023-02-12T20:04:21.559Z,19.00
2023-02-12T20:06:50.957Z,17.53
2023-02-12T20:09:20.594Z,15.77
2023-02-12T20:11:49.411Z,17.17
2023-02-12T20:14:18.287Z,17.93
2023-02-12T20:16:48.385Z,16.27
2023-02-12T20:19:20.941Z,17.90
2023-02-12T20:21:54.298Z,17.50
2023-02-12T20:24:23.054Z,18.70
2023-02-12T20:26:51.853Z,22.07
2023-02-12T20:29:20.484Z,24.37
2023-02-12T20:31:50.645Z,20.63
2023-02-12T20:34:22.134Z,20.33
2023-02-12T20:36:50.669Z,24.70
2023-02-12T20:39:21.088Z,27.57
2023-02-12T20:41:50.420Z,23.23
2023-02-12T20:44:21.757Z,51.40
2023-02-12T20:46:56.402Z,49.40
2023-02-12T20:49:26.073Z,49.67
2023-02-12T20:51:54.332Z,52.30
2023-02-12T20:54:22.808Z,59.80
2023-02-12T20:56:51.532Z,41.30
2023-02-12T20:59:20.391Z,45.80
2023-02-12T21:01:50.456Z,41.27
2023-02-12T21:04:20.675Z,37.23
2023-02-12T21:06:49.582Z,37.13
2023-02-12T21:09:18.729Z,44.60
2023-02-12T21:11:47.500Z,39.07
2023-02-12T21:14:24.883Z,35.63
2023-02-12T21:16:56.909Z,33.17
2023-02-12T21:19:26.561Z,32.50
2023-02-12T21:21:55.307Z,33.50
2023-02-12T21:24:26.454Z,34.87
2023-02-12T21:26:56.841Z,36.30
2023-02-12T21:29:26.708Z,36.07
2023-02-12T21:31:56.481Z,34.53
2023-02-12T21:34:25.209Z,34.80
2023-02-12T21:36:55.877Z,34.07
2023-02-12T21:39:27.760Z,32.83
2023-02-12T21:41:58.296Z,32.70
2023-02-12T21:44:27.674Z,29.17
2023-02-12T21:46:58.637Z,31.30
2023-02-12T21:49:28.174Z,29.60
2023-02-12T21:51:58.558Z,32.37
2023-02-12T21:54:27.886Z,34.77
2023-02-12T21:56:56.908Z,30.87
2023-02-12T21:59:26.529Z,30.03
2023-02-12T22:01:58.592Z,27.23
2023-02-12T22:04:27.653Z,25.17
2023-02-12T22:06:56.584Z,20.53
2023-02-12T22:09:25.052Z,18.73
2023-02-12T22:11:53.870Z,17.20
2023-02-12T22:14:23.498Z,17.43
2023-02-12T22:16:52.098Z,20.87
2023-02-12T22:19:21.768Z,18.53
2023-02-12T22:21:52.575Z,17.73
2023-02-12T22:24:21.871Z,18.53
2023-02-12T22:26:50.316Z,17.07
2023-02-12T22:29:18.687Z,18.10
2023-02-12T22:31:48.540Z,17.97
2023-02-12T22:34:18.980Z,16.63
2023-02-12T22:36:49.221Z,17.50
2023-02-12T22:39:18.522Z,18.77
2023-02-12T22:41:47.067Z,18.53
2023-02-12T22:44:17.398Z,17.80
2023-02-12T22:46:46.630Z,17.00
2023-02-12T22:49:15.209Z,18.67
2023-02-12T22:51:43.750Z,18.47
2023-02-12T22:54:15.929Z,18.57
2023-02-12T22:56:45.014Z,18.73
2023-02-12T22:59:14.091Z,17.93
2023-02-12T23:01:43.363Z,19.73
2023-02-12T23:04:16.284Z,20.47
2023-02-12T23:06:45.208Z,18.67
2023-02-12T23:09:17.996Z,18.90
2023-02-12T23:11:46.768Z,19.27
2023-02-12T23:14:15.256Z,19.90
2023-02-12T23:16:43.660Z,18.13
2023-02-12T23:19:12.516Z,19.10
2023-02-12T23:21:41.207Z,18.27
2023-02-12T23:24:15.041Z,18.60
2023-02-12T23:26:43.474Z,19.00
2023-02-12T23:29:11.745Z,18.90
2023-02-12T23:31:40.249Z,19.37
2023-02-12T23:34:08.566Z,19.77
2023-02-12T23:36:36.825Z,18.73
2023-02-12T23:39:06.104Z,19.93
2023-02-12T23:41:35.906Z,19.23
2023-02-12T23:44:04.312Z,19.03
2023-02-12T23:46:32.809Z,17.47
2023-02-12T23:49:01.126Z,17.30
2023-02-12T23:51:29.488Z,17.97
2023-02-12T23:53:57.953Z,18.47
2023-02-12T23:56:26.684Z,19.67
2023-02-12T23:58:58.388Z,17.97
